createdAt,value
2022-08-08T00:00:55.850Z,97560.97
2022-08-08T00:05:43.983Z,97554.84
2022-08-08T00:11:20.514Z,97559.59
2022-08-08T00:16:30.186Z,97562.31
2022-08-08T00:21:39.503Z,97516.56
2022-08-08T00:26:51.644Z,97522.06
2022-08-08T00:32:21.006Z,97562.06
2022-08-08T00:37:48.222Z,97481.25
2022-08-08T00:43:41.471Z,97544.09
2022-08-08T00:49:22.688Z,97568.88
2022-08-08T00:54:41.063Z,97572.03
2022-08-08T01:00:08.661Z,97562.38
2022-08-08T01:05:59.795Z,97562.81
2022-08-08T01:11:37.914Z,97574.06
2022-08-08T01:16:47.894Z,97556.72
2022-08-08T01:22:23.648Z,97547.09
2022-08-08T01:27:59.407Z,97579.97
2022-08-08T01:33:54.249Z,97567.06
2022-08-08T01:39:06.066Z,97524.13
2022-08-08T01:44:36.143Z,97560.50
2022-08-08T01:50:20.053Z,97555.94
2022-08-08T01:56:27.325Z,97547.56
2022-08-08T02:01:05.153Z,97563.19
2022-08-08T02:06:54.302Z,97470.88
2022-08-08T02:12:02.690Z,97432.81
2022-08-08T02:17:25.775Z,97551.66
2022-08-08T02:22:57.976Z,97531.06
2022-08-08T02:28:34.724Z,97547.41
2022-08-08T02:34:07.973Z,97466.53
2022-08-08T02:39:42.057Z,97524.59
2022-08-08T02:44:59.894Z,97559.38
2022-08-08T02:50:18.209Z,97560.00
2022-08-08T02:55:25.138Z,97564.53
2022-08-08T03:00:52.600Z,97566.00
2022-08-08T03:06:11.609Z,97508.78
2022-08-08T03:12:06.019Z,97573.53
2022-08-08T03:17:20.319Z,97548.97
2022-08-08T03:22:57.154Z,97574.41
2022-08-08T03:28:08.221Z,97563.22
2022-08-08T03:33:55.039Z,97538.56
2022-08-08T03:38:57.648Z,97512.31
2022-08-08T03:44:07.817Z,97541.91
2022-08-08T03:49:57.917Z,97526.50
2022-08-08T03:55:02.222Z,97566.78
2022-08-08T04:00:18.344Z,97518.16
2022-08-08T04:05:27.368Z,97562.63
2022-08-08T04:10:33.449Z,97496.88
2022-08-08T04:15:38.326Z,97573.25
2022-08-08T04:20:41.969Z,97538.09
2022-08-08T04:25:45.130Z,97495.94
2022-08-08T04:30:49.233Z,97551.03
2022-08-08T04:35:52.281Z,97580.81
2022-08-08T04:40:55.058Z,97393.22
2022-08-08T04:45:59.040Z,97605.09
2022-08-08T04:51:01.575Z,97583.66
2022-08-08T04:56:04.549Z,97580.72
2022-08-08T05:01:10.752Z,97508.31
2022-08-08T05:06:25.257Z,97588.63
2022-08-08T05:11:38.711Z,97561.13
2022-08-08T05:16:55.153Z,97599.44
2022-08-08T05:22:04.507Z,97639.03
2022-08-08T05:27:07.440Z,97609.63
2022-08-08T05:32:12.838Z,97575.31
2022-08-08T05:37:28.222Z,97628.09
2022-08-08T05:42:45.841Z,97586.22
2022-08-08T05:48:00.066Z,97549.16
2022-08-08T05:53:55.362Z,97638.72
2022-08-08T05:58:33.353Z,97576.25
2022-08-08T06:03:37.746Z,97627.22
2022-08-08T06:08:54.815Z,97572.19
2022-08-08T06:13:58.220Z,97646.25
2022-08-08T06:19:04.113Z,97665.28
2022-08-08T06:24:22.790Z,97632.31
2022-08-08T06:29:59.830Z,97653.06
2022-08-08T06:35:30.735Z,97624.34
2022-08-08T06:40:36.608Z,97674.34
2022-08-08T06:45:39.926Z,97604.88
2022-08-08T06:50:43.486Z,97545.84
2022-08-08T06:56:00.753Z,97673.69
2022-08-08T07:01:24.593Z,97639.97
2022-08-08T07:06:35.296Z,97526.78
2022-08-08T07:11:46.162Z,97660.28
2022-08-08T07:17:09.514Z,97686.00
2022-08-08T07:22:46.703Z,97602.28
2022-08-08T07:28:07.776Z,97676.66
2022-08-08T07:33:17.657Z,97614.38
2022-08-08T07:38:24.784Z,97617.47
2022-08-08T07:43:36.768Z,97592.94
2022-08-08T07:48:40.202Z,97545.03
2022-08-08T07:54:03.032Z,97707.00
2022-08-08T07:59:19.344Z,97595.34
2022-08-08T08:04:29.939Z,97706.19
2022-08-08T08:09:39.424Z,97699.53
2022-08-08T08:14:54.582Z,97726.44
2022-08-08T08:20:00.023Z,97719.47
2022-08-08T08:25:07.467Z,97658.13
2022-08-08T08:30:11.631Z,97661.09
2022-08-08T08:35:15.246Z,97627.44
2022-08-08T08:40:19.517Z,97623.50
2022-08-08T08:45:23.333Z,97691.56
2022-08-08T08:50:33.077Z,97722.88
2022-08-08T08:55:40.118Z,97698.63
2022-08-08T09:01:04.880Z,97512.19
2022-08-08T09:06:26.418Z,97740.47
2022-08-08T09:11:34.017Z,97746.41
2022-08-08T09:16:37.538Z,97723.03
2022-08-08T09:21:56.802Z,97622.91
2022-08-08T09:27:20.268Z,97712.47
2022-08-08T09:32:38.182Z,97753.22
2022-08-08T09:38:00.880Z,97746.03
2022-08-08T09:43:41.122Z,97702.47
2022-08-08T09:48:52.746Z,97594.50
2022-08-08T09:54:09.496Z,97721.53
2022-08-08T10:00:01.154Z,97548.09
2022-08-08T10:05:14.589Z,97653.88
2022-08-08T10:10:31.622Z,97678.16
2022-08-08T10:15:39.228Z,97503.66
2022-08-08T10:20:58.162Z,97734.63
2022-08-08T10:26:04.342Z,97695.63
2022-08-08T10:31:50.156Z,97545.94
2022-08-08T10:36:53.831Z,97721.84
2022-08-08T10:42:16.831Z,97662.91
2022-08-08T11:01:54.321Z,97713.91
2022-08-08T11:12:04.907Z,97696.56
2022-08-08T11:17:15.016Z,97602.41
2022-08-08T11:22:25.258Z,97478.72
2022-08-08T11:27:37.348Z,97702.25
2022-08-08T11:38:43.391Z,97679.06
2022-08-08T11:42:52.322Z,97703.63
2022-08-08T11:48:04.499Z,97617.19
2022-08-08T11:53:10.171Z,97631.88
2022-08-08T11:58:17.733Z,97623.78
2022-08-08T12:03:30.679Z,97687.06
2022-08-08T12:08:36.393Z,97538.16
2022-08-08T12:14:03.127Z,97503.50
2022-08-08T12:19:05.999Z,97561.31
2022-08-08T12:24:28.092Z,97671.25
2022-08-08T12:29:40.803Z,97665.81
2022-08-08T12:35:13.033Z,97656.97
2022-08-08T12:40:24.520Z,97608.72
2022-08-08T12:45:59.157Z,97657.22
2022-08-08T12:51:02.714Z,97657.56
2022-08-08T12:56:19.357Z,97650.56
2022-08-08T13:01:38.289Z,97618.59
2022-08-08T13:06:58.617Z,97575.28
2022-08-08T13:12:34.250Z,97630.47
2022-08-08T13:18:09.485Z,97617.25
2022-08-08T13:23:35.724Z,97608.47
2022-08-08T13:28:32.846Z,97627.22
2022-08-08T13:33:42.153Z,97608.19
2022-08-08T13:38:46.689Z,97556.00
2022-08-08T13:43:51.068Z,97558.72
2022-08-08T13:50:32.253Z,97605.44
2022-08-08T13:54:22.228Z,97601.00
2022-08-08T13:59:35.212Z,97599.84
2022-08-08T14:04:57.466Z,97588.75
2022-08-08T14:10:17.608Z,97598.44
2022-08-08T14:15:39.822Z,97485.69
2022-08-08T14:21:03.681Z,97585.56
2022-08-08T14:26:22.554Z,97514.16
2022-08-08T14:32:05.806Z,97413.66
2022-08-08T14:36:54.860Z,97450.59
2022-08-08T14:42:07.721Z,97485.03
2022-08-08T14:47:21.301Z,97398.13
2022-08-08T14:52:24.969Z,97558.91
2022-08-08T14:58:03.234Z,97615.34
2022-08-08T15:03:01.440Z,97585.88
2022-08-08T15:08:22.516Z,97561.19
2022-08-08T15:14:00.829Z,97621.47
2022-08-08T15:19:05.506Z,97401.25
2022-08-08T15:24:14.038Z,97603.81
2022-08-08T15:29:19.250Z,97404.84
2022-08-08T15:34:31.847Z,97669.31
2022-08-08T15:39:38.565Z,97548.19
2022-08-08T15:44:43.227Z,97564.84
2022-08-08T15:49:49.324Z,97618.91
2022-08-08T15:54:53.439Z,97652.09
2022-08-08T16:00:05.340Z,97603.66
2022-08-08T16:05:21.541Z,97653.75
2022-08-08T16:13:21.331Z,97648.19
2022-08-08T16:15:57.715Z,97602.38
2022-08-08T16:21:03.640Z,97628.81
2022-08-08T16:26:19.364Z,97438.72
2022-08-08T16:31:26.829Z,97643.34
2022-08-08T16:36:33.460Z,97562.00
2022-08-08T16:41:37.433Z,97692.00
2022-08-08T16:46:46.135Z,97639.00
2022-08-08T16:55:03.426Z,97595.25
2022-08-08T16:57:27.770Z,97661.72
2022-08-08T17:02:43.131Z,97715.22
2022-08-08T17:07:51.528Z,97590.75
2022-08-08T17:13:00.375Z,97718.81
2022-08-08T17:18:13.343Z,97643.28
2022-08-08T17:23:58.475Z,97617.31
2022-08-08T17:28:43.158Z,97711.22
2022-08-08T17:34:53.108Z,97752.91
2022-08-08T17:39:45.733Z,97750.94
2022-08-08T17:44:33.852Z,97765.00
2022-08-08T17:49:43.456Z,97676.41
2022-08-08T17:54:46.789Z,97721.19
2022-08-08T18:00:01.718Z,97612.75
2022-08-08T18:05:06.202Z,97729.47
2022-08-08T18:10:09.384Z,97774.72
2022-08-08T18:15:13.063Z,97737.53
2022-08-08T18:20:43.110Z,97751.84
2022-08-08T18:25:39.299Z,97702.09
2022-08-08T18:30:43.197Z,97753.56
2022-08-08T18:35:48.834Z,97794.50
2022-08-08T18:40:52.398Z,97791.00
2022-08-08T18:46:53.463Z,97761.06
2022-08-08T18:51:48.449Z,97770.63
2022-08-08T18:56:46.793Z,97788.31
2022-08-08T19:02:28.161Z,97805.03
2022-08-08T19:07:15.614Z,97827.00
2022-08-08T19:12:19.329Z,97802.13
2022-08-08T19:17:47.997Z,97800.81
2022-08-08T19:22:53.904Z,97853.19
2022-08-08T19:27:59.791Z,97861.19
2022-08-08T19:33:03.277Z,97759.78
2022-08-08T19:38:07.244Z,97778.03
2022-08-08T19:43:15.451Z,97829.03
2022-08-08T19:48:29.056Z,97787.53
2022-08-08T19:53:51.094Z,97820.16
2022-08-08T19:58:55.865Z,97807.56
2022-08-08T20:04:01.158Z,97725.50
2022-08-08T20:09:09.034Z,97816.16
2022-08-08T20:14:34.278Z,97821.09
2022-08-08T20:19:42.217Z,97781.63
2022-08-08T20:24:46.622Z,97839.59
2022-08-08T20:30:00.572Z,97784.69
2022-08-08T20:35:05.787Z,97875.63
2022-08-08T20:40:16.634Z,97864.22
2022-08-08T20:45:55.081Z,97805.41
2022-08-08T20:50:43.690Z,97850.50
2022-08-08T20:55:51.123Z,97806.16
2022-08-08T21:00:54.535Z,97691.81
2022-08-08T21:05:58.752Z,97873.53
2022-08-08T21:11:03.455Z,97823.34
2022-08-08T21:16:17.811Z,97716.06
2022-08-08T21:21:39.871Z,97903.19
2022-08-08T21:26:45.789Z,97881.53
2022-08-08T21:31:58.271Z,97922.56
2022-08-08T21:37:16.410Z,97932.81
2022-08-08T21:42:23.608Z,97922.28
2022-08-08T21:48:05.525Z,97837.09
2022-08-08T21:54:31.171Z,97931.94
2022-08-08T21:58:16.580Z,97916.47
2022-08-08T22:03:20.470Z,97747.75
2022-08-08T22:08:24.171Z,97853.59
2022-08-08T22:13:47.803Z,97937.81
2022-08-08T22:18:52.574Z,97932.41
2022-08-08T22:23:56.819Z,97737.69
2022-08-08T22:29:15.140Z,97949.81
2022-08-08T22:34:24.396Z,97964.50
2022-08-08T22:39:46.208Z,97950.25
2022-08-08T22:44:54.749Z,97941.28
2022-08-08T22:49:59.982Z,97939.13
2022-08-08T22:55:06.313Z,97898.53
2022-08-08T23:00:14.596Z,97941.41
2022-08-08T23:05:21.447Z,97749.72
2022-08-08T23:10:26.812Z,97928.88
2022-08-08T23:16:40.823Z,97934.75
2022-08-08T23:20:54.792Z,97877.50
2022-08-08T23:25:58.541Z,97855.16
2022-08-08T23:31:02.816Z,97840.63
2022-08-08T23:36:07.857Z,97845.19
2022-08-08T23:41:17.610Z,97851.44
2022-08-08T23:49:04.910Z,97858.88
2022-08-08T23:52:06.147Z,97926.94
2022-08-08T23:57:25.192Z,97767.28
